createdAt,value
2024-03-08T00:02:41.506Z,79.54
2024-03-08T00:07:45.978Z,79.62
2024-03-08T00:12:50.370Z,79.68
2024-03-08T00:17:55.860Z,79.72
2024-03-08T00:23:00.487Z,79.87
2024-03-08T00:28:06.768Z,79.86
2024-03-08T00:33:10.902Z,80.08
2024-03-08T00:38:14.836Z,80.38
2024-03-08T00:43:19.280Z,80.32
2024-03-08T00:48:23.967Z,80.35
2024-03-08T00:53:28.812Z,80.24
2024-03-08T00:58:33.232Z,80.05
2024-03-08T01:03:38.038Z,80.23
2024-03-08T01:08:44.095Z,80.55
2024-03-08T01:13:50.006Z,80.52
2024-03-08T01:18:53.870Z,80.44
2024-03-08T01:23:59.235Z,80.56
2024-03-08T01:29:06.720Z,80.50
2024-03-08T01:34:10.635Z,80.81
2024-03-08T01:39:15.376Z,80.88
2024-03-08T01:44:19.743Z,80.68
2024-03-08T01:49:26.892Z,80.73
2024-03-08T01:54:31.978Z,80.58
2024-03-08T01:59:36.158Z,80.95
2024-03-08T02:04:41.139Z,81.12
2024-03-08T02:09:45.332Z,81.24
2024-03-08T02:14:50.411Z,81.13
2024-03-08T02:19:57.690Z,80.97
2024-03-08T02:25:05.143Z,81.22
2024-03-08T02:30:10.707Z,81.22
2024-03-08T02:35:15.016Z,81.16
2024-03-08T02:40:19.694Z,81.04
2024-03-08T02:45:24.270Z,81.05
2024-03-08T02:50:29.025Z,80.83
2024-03-08T02:55:35.051Z,81.15
2024-03-08T03:00:47.997Z,80.97
2024-03-08T03:06:03.550Z,81.21
2024-03-08T03:11:09.058Z,81.18
2024-03-08T03:16:19.885Z,81.33
2024-03-08T03:21:24.147Z,81.39
2024-03-08T03:26:28.981Z,81.35
2024-03-08T03:31:32.984Z,81.52
2024-03-08T03:36:39.784Z,81.52
2024-03-08T03:41:47.870Z,81.37
2024-03-08T03:46:55.264Z,81.59
2024-03-08T03:51:59.482Z,81.90
2024-03-08T03:57:04.847Z,81.99
2024-03-08T04:02:09.773Z,81.49
2024-03-08T04:07:14.557Z,81.83
2024-03-08T04:12:19.374Z,82.06
2024-03-08T04:17:26.033Z,82.00
2024-03-08T04:22:30.646Z,81.82
2024-03-08T04:27:35.989Z,81.69
2024-03-08T04:32:40.381Z,81.90
2024-03-08T04:37:44.054Z,81.69
2024-03-08T04:42:48.050Z,81.83
2024-03-08T04:47:53.429Z,81.88
2024-03-08T04:52:57.259Z,82.03
2024-03-08T04:58:01.791Z,82.33
2024-03-08T05:03:06.750Z,82.19
2024-03-08T05:08:11.300Z,82.08
2024-03-08T05:13:15.838Z,82.36
2024-03-08T05:18:20.419Z,82.29
2024-03-08T05:23:23.943Z,82.40
2024-03-08T05:28:28.155Z,82.21
2024-03-08T05:33:32.097Z,82.47
2024-03-08T05:38:36.108Z,82.45
2024-03-08T05:43:42.496Z,82.60
2024-03-08T05:48:48.344Z,82.84
2024-03-08T05:53:55.299Z,82.70
2024-03-08T05:59:02.451Z,82.41
2024-03-08T06:04:06.870Z,82.87
2024-03-08T06:09:15.831Z,83.02
2024-03-08T06:14:20.523Z,83.36
2024-03-08T06:19:24.919Z,83.37
2024-03-08T06:24:29.103Z,83.52
2024-03-08T06:29:33.359Z,83.82
2024-03-08T06:34:37.997Z,83.84
2024-03-08T06:39:42.251Z,83.84
2024-03-08T06:44:51.549Z,84.26
2024-03-08T06:49:55.976Z,84.44
2024-03-08T06:55:03.247Z,84.59
2024-03-08T07:00:11.492Z,84.85
2024-03-08T07:05:16.798Z,85.05
2024-03-08T07:10:20.883Z,85.14
2024-03-08T07:15:25.953Z,85.19
2024-03-08T07:20:30.518Z,85.42
2024-03-08T07:25:34.996Z,85.68
2024-03-08T07:30:45.825Z,85.08
2024-03-08T07:35:51.927Z,83.87
2024-03-08T07:40:58.751Z,82.35
2024-03-08T07:46:03.329Z,80.71
2024-03-08T07:51:08.093Z,78.82
2024-03-08T07:56:15.053Z,76.90
2024-03-08T08:01:20.412Z,76.01
2024-03-08T08:06:25.032Z,74.66
2024-03-08T08:11:30.696Z,73.72
2024-03-08T08:16:34.837Z,73.15
2024-03-08T08:21:39.201Z,72.71
2024-03-08T08:26:43.395Z,71.57
2024-03-08T08:31:48.302Z,70.85
2024-03-08T08:36:52.836Z,70.98
2024-03-08T08:41:57.789Z,70.28
2024-03-08T08:47:09.907Z,69.61
2024-03-08T08:52:18.581Z,69.73
2024-03-08T08:57:22.637Z,68.96
2024-03-08T09:02:27.507Z,68.35
2024-03-08T09:07:31.464Z,67.84
2024-03-08T09:12:35.637Z,68.01
2024-03-08T09:17:43.343Z,68.34
2024-03-08T09:22:47.865Z,68.69
2024-03-08T09:27:52.431Z,69.03
2024-03-08T09:32:58.591Z,68.75
2024-03-08T09:38:04.862Z,68.11
2024-03-08T09:43:09.916Z,67.67
2024-03-08T09:48:14.368Z,67.41
2024-03-08T09:53:19.238Z,66.91
2024-03-08T09:58:33.129Z,66.51
2024-03-08T10:03:37.588Z,65.99
2024-03-08T10:08:42.850Z,65.46
2024-03-08T10:13:50.195Z,64.60
2024-03-08T10:18:55.290Z,64.25
2024-03-08T10:24:00.626Z,64.31
2024-03-08T10:29:06.111Z,64.53
2024-03-08T10:34:11.032Z,63.63
2024-03-08T10:39:26.370Z,63.01
2024-03-08T10:44:52.700Z,62.95
2024-03-08T10:50:05.899Z,61.32
2024-03-08T10:55:14.259Z,61.09
2024-03-08T11:00:20.156Z,61.05
2024-03-08T11:05:43.571Z,60.17
2024-03-08T11:10:56.074Z,59.70
2024-03-08T11:16:02.092Z,58.52
2024-03-08T11:21:14.665Z,58.24
2024-03-08T11:26:25.481Z,57.71
2024-03-08T11:31:30.606Z,57.39
2024-03-08T11:36:38.790Z,56.51
2024-03-08T11:41:47.348Z,55.83
2024-03-08T11:46:51.835Z,55.70
2024-03-08T11:51:58.552Z,55.60
2024-03-08T11:57:02.964Z,54.81
2024-03-08T12:02:08.415Z,54.72
2024-03-08T12:07:14.750Z,54.57
2024-03-08T12:12:19.369Z,54.10
2024-03-08T12:17:25.728Z,53.91
2024-03-08T12:22:33.069Z,53.39
2024-03-08T12:27:38.378Z,53.47
2024-03-08T12:32:48.637Z,53.67
2024-03-08T12:37:55.207Z,53.79
2024-03-08T12:43:04.412Z,53.38
2024-03-08T12:48:18.194Z,53.53
2024-03-08T12:53:22.771Z,53.36
2024-03-08T12:58:27.861Z,53.09
2024-03-08T13:03:33.386Z,53.28
2024-03-08T13:08:43.566Z,52.89
2024-03-08T13:13:47.523Z,52.73
2024-03-08T13:18:54.643Z,52.47
2024-03-08T13:24:01.985Z,52.12
2024-03-08T13:29:08.133Z,51.65
2024-03-08T13:34:13.068Z,51.40
2024-03-08T13:39:17.712Z,51.52
2024-03-08T13:44:22.143Z,51.23
2024-03-08T13:49:27.968Z,50.98
2024-03-08T13:54:32.850Z,51.14
2024-03-08T13:59:37.006Z,50.48
2024-03-08T14:04:43.696Z,50.15
2024-03-08T14:09:48.459Z,50.67
2024-03-08T14:14:53.494Z,50.24
2024-03-08T14:19:58.428Z,50.05
2024-03-08T14:25:06.176Z,49.66
2024-03-08T14:30:11.830Z,49.54
2024-03-08T14:35:16.139Z,49.83
2024-03-08T14:40:27.812Z,49.43
2024-03-08T14:45:32.189Z,49.44
2024-03-08T14:50:38.325Z,49.37
2024-03-08T14:55:41.971Z,49.37
2024-03-08T15:00:47.136Z,49.61
2024-03-08T15:05:51.859Z,49.52
2024-03-08T15:10:56.123Z,49.54
2024-03-08T15:16:00.518Z,49.82
2024-03-08T15:21:07.980Z,49.74
2024-03-08T15:26:11.962Z,49.96
2024-03-08T15:31:16.269Z,50.04
2024-03-08T15:36:22.702Z,50.57
2024-03-08T15:41:28.263Z,50.69
2024-03-08T15:46:32.166Z,50.76
2024-03-08T15:51:40.256Z,51.01
2024-03-08T15:56:47.625Z,51.49
2024-03-08T16:01:53.426Z,51.89
2024-03-08T16:07:03.556Z,52.13
2024-03-08T16:12:14.350Z,52.64
2024-03-08T16:17:20.235Z,53.06
2024-03-08T16:22:26.934Z,53.54
2024-03-08T16:27:30.867Z,54.45
2024-03-08T16:32:34.689Z,55.05
2024-03-08T16:37:53.926Z,55.20
2024-03-08T16:42:57.874Z,55.93
2024-03-08T16:48:05.081Z,56.32
2024-03-08T16:53:12.482Z,57.01
2024-03-08T16:58:16.727Z,57.60
2024-03-08T17:03:20.807Z,58.24
2024-03-08T17:08:24.931Z,58.30
2024-03-08T17:13:29.522Z,58.94
2024-03-08T17:18:33.320Z,59.48
2024-03-08T17:23:38.518Z,59.75
2024-03-08T17:28:44.859Z,59.96
2024-03-08T17:33:49.124Z,60.12
2024-03-08T17:38:54.951Z,61.03
2024-03-08T17:43:59.112Z,61.79
2024-03-08T17:49:04.573Z,61.85
2024-03-08T17:54:12.574Z,62.22
2024-03-08T17:59:16.700Z,62.92
2024-03-08T18:04:23.965Z,63.48
2024-03-08T18:09:28.129Z,63.60
2024-03-08T18:14:32.472Z,63.99
2024-03-08T18:19:38.070Z,64.34
2024-03-08T18:24:44.107Z,64.56
2024-03-08T18:29:47.994Z,64.84
2024-03-08T18:34:52.714Z,65.15
2024-03-08T18:39:57.671Z,65.84
2024-03-08T18:45:01.592Z,66.04
2024-03-08T18:50:07.639Z,65.91
2024-03-08T18:55:17.096Z,66.85
2024-03-08T19:00:23.211Z,66.55
2024-03-08T19:05:29.974Z,67.38
2024-03-08T19:10:35.479Z,67.62
2024-03-08T19:15:39.857Z,67.43
2024-03-08T19:20:44.364Z,68.05
2024-03-08T19:25:51.688Z,68.45
2024-03-08T19:30:57.435Z,68.93
2024-03-08T19:36:01.932Z,69.51
2024-03-08T19:41:08.316Z,69.37
2024-03-08T19:46:13.346Z,69.66
2024-03-08T19:51:18.762Z,69.77
2024-03-08T19:56:24.553Z,69.98
2024-03-08T20:01:28.426Z,69.96
2024-03-08T20:06:33.725Z,70.28
2024-03-08T20:11:37.823Z,70.65
2024-03-08T20:16:41.462Z,70.48
2024-03-08T20:21:45.998Z,71.23
2024-03-08T20:26:50.512Z,71.36
2024-03-08T20:31:55.135Z,71.63
2024-03-08T20:37:02.660Z,72.08
2024-03-08T20:42:06.984Z,72.08
2024-03-08T20:47:12.878Z,72.02
2024-03-08T20:52:17.767Z,71.86
2024-03-08T20:57:22.343Z,72.01
2024-03-08T21:02:26.800Z,72.32
2024-03-08T21:07:33.656Z,72.71
2024-03-08T21:12:42.240Z,72.49
2024-03-08T21:17:47.828Z,72.71
2024-03-08T21:22:52.754Z,73.21
2024-03-08T21:28:01.934Z,73.50
2024-03-08T21:33:12.650Z,73.55
2024-03-08T21:38:18.096Z,73.70
2024-03-08T21:43:23.097Z,74.00
2024-03-08T21:48:28.062Z,74.19
2024-03-08T21:53:35.513Z,74.26
2024-03-08T21:58:42.415Z,74.31
2024-03-08T22:03:46.992Z,74.07
2024-03-08T22:08:52.168Z,74.27
2024-03-08T22:13:57.439Z,74.63
2024-03-08T22:19:02.521Z,74.54
2024-03-08T22:24:06.734Z,74.99
2024-03-08T22:29:11.982Z,75.19
2024-03-08T22:34:17.369Z,75.72
2024-03-08T22:39:25.222Z,75.78
2024-03-08T22:44:29.593Z,75.95
2024-03-08T22:49:34.792Z,76.17
2024-03-08T22:54:38.848Z,76.29
2024-03-08T22:59:43.504Z,76.18
2024-03-08T23:04:48.146Z,76.24
2024-03-08T23:09:51.967Z,76.07
2024-03-08T23:14:56.569Z,76.00
2024-03-08T23:20:00.906Z,76.09
2024-03-08T23:25:11.227Z,76.26
2024-03-08T23:30:15.081Z,76.45
2024-03-08T23:35:22.789Z,76.56
2024-03-08T23:40:26.394Z,76.38
2024-03-08T23:45:31.905Z,76.36
2024-03-08T23:50:38.773Z,75.92
2024-03-08T23:55:44.774Z,76.19
